Zumarraga, Spain
Current Conditions -  °F | °C
As of 5:30 PM on Tuesday 27 Jan 2015 (Local Time) from LEVT Reporting Station
Broken Clouds Broken Clouds  
Wind Chill: 43°   Ceiling: 2000
Heat Index: 43°   Visibility: 6mi
Dew Point: 41°   Wind: 1mph
Humidity: 93%   Direction: NA
Pressure: 30.39"   Gusts: NA
Location:  43.09°N, 2.31°W
Report Text: LEVT 271630Z VRB01KT 9999 SCT016 BKN020 06/05 Q1029
Loading
Personal Weather Stations






























Interactive Weather Map New forecast layout! Learn more

10-Day Weather Forecast

Advertisements
Track Severe Weather on mobile